Time;durP1;ratioP1;P1;durP2;ratioP2;P2;SDS_P1;SDS_P2;PMS_P1;PMS_P2;Temp;Humidity;BMP_temperature;BMP_pressure;BME280_temperature;BME280_humidity;BME280_pressure;Samples;Min_cycle;Max_cycle;Signal;HPM_P1;HPM_P2
2022/07/05 00:00:48;;;;;;;4.80;2.20;;;18.80;58.80;;;;;;5097885;28;20028;-74
2022/07/05 00:03:14;;;;;;;3.75;2.50;;;18.80;59.10;;;;;;5115853;28;20024;-74
2022/07/05 00:05:40;;;;;;;3.58;2.42;;;18.80;59.30;;;;;;5115854;28;20028;-75
2022/07/05 00:08:06;;;;;;;4.97;2.72;;;18.80;59.10;;;;;;5115770;28;20024;-75
2022/07/05 00:10:33;;;;;;;5.38;3.33;;;18.40;59.70;;;;;;5115736;28;20028;-75
2022/07/05 00:12:59;;;;;;;4.57;2.78;;;18.30;60.80;;;;;;5115583;28;20031;-75
2022/07/05 00:15:24;;;;;;;4.15;2.53;;;18.30;61.20;;;;;;5115602;28;20028;-74
2022/07/05 00:17:50;;;;;;;6.60;3.25;;;18.30;61.00;;;;;;5115573;28;20020;-75
2022/07/05 00:20:16;;;;;;;4.50;2.80;;;18.30;61.20;;;;;;5115522;28;20028;-76
2022/07/05 00:22:42;;;;;;;4.65;3.00;;;18.40;61.30;;;;;;5115454;28;20031;-75
2022/07/05 00:25:08;;;;;;;5.45;2.75;;;18.30;61.10;;;;;;5115404;28;20023;-76
2022/07/05 00:27:33;;;;;;;4.35;2.55;;;18.20;61.30;;;;;;5115382;28;20024;-74
2022/07/05 00:29:59;;;;;;;5.22;3.05;;;18.20;60.70;;;;;;5115250;28;20111;-75
2022/07/05 00:32:25;;;;;;;5.20;2.80;;;18.20;60.70;;;;;;5115245;28;20093;-75
2022/07/05 00:34:51;;;;;;;5.72;3.10;;;18.20;61.10;;;;;;5115208;28;20031;-75
2022/07/05 00:37:16;;;;;;;4.70;2.92;;;18.20;61.20;;;;;;5115138;28;20016;-75
2022/07/05 00:39:42;;;;;;;4.43;3.10;;;18.20;62.10;;;;;;5115071;28;20083;-75
2022/07/05 00:42:08;;;;;;;3.63;2.70;;;18.20;61.20;;;;;;5115206;28;20100;-75
2022/07/05 00:44:36;;;;;;;5.68;3.08;;;18.20;61.10;;;;;;5115036;28;20047;-75
2022/07/05 00:47:06;;;;;;;4.97;2.97;;;18.10;60.90;;;;;;5114999;28;20030;-75
2022/07/05 00:49:33;;;;;;;4.00;3.42;;;18.10;60.80;;;;;;5115083;28;20024;-74
2022/07/05 00:51:59;;;;;;;3.35;3.00;;;18.00;60.90;;;;;;5114873;28;20024;-75
2022/07/05 00:54:31;;;;;;;5.65;3.30;;;18.10;61.20;;;;;;5096599;28;20131;-75
2022/07/05 00:56:57;;;;;;;5.80;3.35;;;18.00;61.10;;;;;;5114826;28;20048;-75
2022/07/05 00:59:23;;;;;;;4.13;3.22;;;17.90;61.10;;;;;;5114737;28;20028;-75
2022/07/05 01:01:49;;;;;;;4.57;3.33;;;17.90;61.70;;;;;;5114698;28;20026;-75
2022/07/05 01:04:14;;;;;;;5.18;3.60;;;17.70;61.70;;;;;;5114657;28;20032;-75
2022/07/05 01:06:43;;;;;;;4.55;3.40;;;17.80;61.70;;;;;;5114458;28;20110;-75
2022/07/05 01:09:12;;;;;;;5.20;3.50;;;17.70;61.60;;;;;;5114567;28;20027;-75
2022/07/05 01:11:39;;;;;;;5.03;3.20;;;17.70;61.80;;;;;;5114513;28;20079;-75
2022/07/05 01:14:10;;;;;;;5.20;3.70;;;17.60;61.70;;;;;;5114409;28;20055;-75
2022/07/05 01:16:37;;;;;;;6.38;3.40;;;17.60;61.70;;;;;;5114610;28;20024;-75
2022/07/05 01:19:06;;;;;;;4.50;3.28;;;17.60;61.50;;;;;;5096539;28;20032;-75
2022/07/05 01:21:37;;;;;;;6.70;3.83;;;17.60;61.80;;;;;;5114343;28;20084;-75
2022/07/05 01:24:03;;;;;;;5.22;3.92;;;17.60;61.50;;;;;;5114443;28;20053;-75
2022/07/05 01:26:29;;;;;;;5.97;4.25;;;17.50;61.80;;;;;;5096396;28;20028;-75
2022/07/05 01:28:55;;;;;;;5.80;4.20;;;17.40;62.30;;;;;;5096198;28;20040;-75
2022/07/05 01:31:21;;;;;;;4.88;3.70;;;17.30;62.70;;;;;;5114154;28;20433;-75
2022/07/05 01:33:47;;;;;;;6.38;3.80;;;17.40;62.50;;;;;;5114057;28;20024;-75
2022/07/05 01:36:13;;;;;;;5.00;4.18;;;17.30;62.10;;;;;;5114042;28;20028;-75
2022/07/05 01:38:40;;;;;;;6.53;4.22;;;17.20;62.20;;;;;;5114016;28;20028;-75
2022/07/05 01:41:06;;;;;;;6.65;4.20;;;17.30;62.40;;;;;;5113941;28;20024;-75
2022/07/05 01:43:31;;;;;;;7.28;4.10;;;17.30;62.50;;;;;;5113943;28;20024;-75
2022/07/05 01:46:00;;;;;;;6.47;4.63;;;17.30;62.40;;;;;;5113930;28;20098;-76
2022/07/05 01:48:28;;;;;;;5.82;4.32;;;17.20;62.20;;;;;;5113850;28;20024;-75
2022/07/05 01:51:04;;;;;;;5.60;4.30;;;17.20;62.00;;;;;;5113820;28;20028;-74
2022/07/05 01:53:32;;;;;;;8.35;4.28;;;17.10;62.60;;;;;;5113578;28;20044;-75
2022/07/05 01:56:02;;;;;;;7.38;3.67;;;17.10;62.90;;;;;;5113759;28;20012;-75
2022/07/05 01:58:29;;;;;;;7.43;4.05;;;17.00;63.00;;;;;;5113744;28;20031;-75
2022/07/05 02:00:55;;;;;;;7.03;4.80;;;16.90;63.10;;;;;;5113721;28;20177;-75
2022/07/05 02:03:22;;;;;;;5.28;4.10;;;16.80;63.20;;;;;;5113665;28;20107;-75
2022/07/05 02:05:48;;;;;;;7.43;4.35;;;16.70;63.40;;;;;;5113628;28;20061;-75
2022/07/05 02:08:16;;;;;;;5.95;4.25;;;16.80;63.80;;;;;;5113593;28;20085;-75
2022/07/05 02:10:42;;;;;;;6.47;4.18;;;16.90;63.50;;;;;;5113602;28;20043;-75
2022/07/05 02:13:09;;;;;;;8.13;4.60;;;16.90;63.60;;;;;;5113417;28;20145;-75
2022/07/05 02:15:37;;;;;;;7.13;4.65;;;16.90;63.40;;;;;;5113498;28;20130;-76
2022/07/05 02:18:03;;;;;;;5.30;4.40;;;16.90;63.70;;;;;;5112941;28;20020;-75
2022/07/05 02:20:30;;;;;;;8.60;4.25;;;16.90;63.70;;;;;;5113449;28;20028;-75
2022/07/05 02:22:55;;;;;;;5.43;4.20;;;16.90;63.60;;;;;;5113366;28;20075;-75
2022/07/05 02:25:22;;;;;;;7.43;4.63;;;16.80;63.70;;;;;;5095526;28;20024;-75
2022/07/05 02:27:48;;;;;;;5.53;4.38;;;16.70;63.60;;;;;;5113354;28;20032;-75
2022/07/05 02:30:14;;;;;;;5.32;4.28;;;16.70;63.70;;;;;;5113375;28;20041;-75
2022/07/05 02:32:41;;;;;;;6.30;4.40;;;16.70;64.00;;;;;;5113484;28;20036;-75
2022/07/05 02:35:08;;;;;;;7.15;4.40;;;16.60;64.10;;;;;;5113266;28;20028;-75
2022/07/05 02:37:34;;;;;;;7.28;4.78;;;16.60;64.40;;;;;;5113328;28;20028;-75
2022/07/05 02:39:59;;;;;;;7.85;4.43;;;16.70;64.00;;;;;;5113266;28;20611;-75
2022/07/05 02:42:25;;;;;;;5.95;4.55;;;16.70;64.30;;;;;;5113290;28;20470;-75
2022/07/05 02:44:51;;;;;;;6.40;4.22;;;16.70;64.30;;;;;;5113222;28;20024;-75
2022/07/05 02:47:16;;;;;;;8.57;5.32;;;16.70;64.30;;;;;;5113203;28;20032;-75
2022/07/05 02:49:42;;;;;;;6.97;5.05;;;16.60;64.60;;;;;;5113220;28;20035;-75
2022/07/05 02:52:07;;;;;;;7.65;5.55;;;16.60;64.90;;;;;;5113174;28;20032;-75
2022/07/05 02:54:33;;;;;;;6.90;4.53;;;16.60;65.00;;;;;;5112928;28;20052;-75
2022/07/05 02:56:59;;;;;;;6.03;4.60;;;16.50;64.80;;;;;;5113118;28;20097;-75
2022/07/05 02:59:25;;;;;;;7.10;4.88;;;16.50;64.90;;;;;;5113190;28;20035;-75
2022/07/05 03:01:50;;;;;;;7.65;4.78;;;16.40;64.90;;;;;;5095178;28;20028;-75
2022/07/05 03:04:17;;;;;;;8.13;4.80;;;16.20;65.60;;;;;;5113045;28;20024;-75
2022/07/05 03:06:43;;;;;;;7.10;4.75;;;16.20;66.10;;;;;;5113055;28;20024;-75
2022/07/05 03:09:10;;;;;;;6.32;3.90;;;16.20;66.30;;;;;;5112710;28;20039;-75
2022/07/05 03:11:35;;;;;;;6.40;4.10;;;16.10;65.60;;;;;;5112986;28;20024;-75
2022/07/05 03:14:01;;;;;;;6.93;4.00;;;16.10;65.90;;;;;;5112905;28;20031;-75
2022/07/05 03:16:27;;;;;;;6.15;4.40;;;16.10;65.50;;;;;;5112920;28;20024;-74
2022/07/05 03:18:52;;;;;;;7.28;3.78;;;16.00;65.90;;;;;;5112899;28;20031;-75
2022/07/05 03:21:18;;;;;;;5.53;3.58;;;16.00;66.10;;;;;;5112933;28;20028;-75
2022/07/05 03:23:44;;;;;;;4.72;2.83;;;16.00;65.90;;;;;;5112882;28;20108;-75
2022/07/05 03:26:10;;;;;;;5.32;3.53;;;16.10;65.90;;;;;;5095072;28;20028;-74
2022/07/05 03:28:35;;;;;;;4.90;3.13;;;16.10;66.10;;;;;;5112788;28;20474;-75
2022/07/05 03:31:01;;;;;;;4.50;2.85;;;16.10;66.10;;;;;;5115816;28;20051;-75
2022/07/05 03:33:27;;;;;;;3.90;2.88;;;15.90;66.20;;;;;;5116336;28;20039;-75
2022/07/05 03:35:52;;;;;;;5.65;2.80;;;15.90;66.80;;;;;;5116510;28;20035;-75
2022/07/05 03:38:18;;;;;;;4.35;2.97;;;15.70;66.50;;;;;;5116326;28;20024;-74
2022/07/05 03:40:44;;;;;;;3.58;2.50;;;15.60;66.70;;;;;;5116301;28;20046;-74
2022/07/05 03:43:09;;;;;;;5.43;2.72;;;15.60;66.70;;;;;;5116220;28;20029;-74
2022/07/05 03:45:35;;;;;;;7.38;3.03;;;15.60;66.60;;;;;;5116189;28;20084;-75
2022/07/05 03:48:01;;;;;;;5.43;3.13;;;15.50;66.90;;;;;;5116160;28;20028;-75
2022/07/05 03:50:27;;;;;;;6.60;3.33;;;15.60;67.50;;;;;;5098151;28;20032;-75
2022/07/05 03:52:53;;;;;;;5.97;3.80;;;15.50;67.30;;;;;;5115901;28;20032;-74
2022/07/05 03:55:19;;;;;;;5.40;3.03;;;15.60;67.10;;;;;;5115973;28;20036;-75
2022/07/05 03:57:45;;;;;;;4.28;2.88;;;15.60;66.60;;;;;;5115953;28;20044;-75
2022/07/05 04:00:12;;;;;;;5.03;3.40;;;15.70;66.50;;;;;;5115938;28;20028;-75
2022/07/05 04:02:38;;;;;;;6.00;3.65;;;15.80;66.30;;;;;;5115881;28;20024;-75
2022/07/05 04:05:04;;;;;;;4.25;3.00;;;15.70;67.40;;;;;;5097937;28;20067;-75
2022/07/05 04:07:30;;;;;;;5.55;3.65;;;15.60;67.90;;;;;;5115787;28;20551;-75
2022/07/05 04:09:56;;;;;;;4.97;3.63;;;15.60;67.00;;;;;;5115725;28;20028;-74
2022/07/05 04:12:21;;;;;;;5.13;3.60;;;15.70;67.80;;;;;;5115714;28;20032;-75
2022/07/05 04:14:47;;;;;;;8.55;3.65;;;15.70;67.50;;;;;;5115547;28;20050;-75
2022/07/05 04:17:12;;;;;;;6.63;4.10;;;15.60;67.90;;;;;;5115580;28;20024;-75
2022/07/05 04:19:38;;;;;;;6.47;3.83;;;15.70;67.80;;;;;;5115550;28;20030;-74
2022/07/05 04:22:04;;;;;;;6.95;4.28;;;15.70;68.20;;;;;;5115441;28;20033;-75
2022/07/05 04:24:30;;;;;;;5.88;4.05;;;15.70;68.60;;;;;;5115480;28;20096;-75
2022/07/05 04:26:56;;;;;;;7.65;4.32;;;15.80;68.80;;;;;;5097475;28;20032;-75
2022/07/05 04:29:21;;;;;;;5.93;4.20;;;15.80;68.50;;;;;;5115248;28;20035;-75
2022/07/05 04:31:47;;;;;;;6.82;4.90;;;15.80;68.40;;;;;;5115285;28;20112;-75
2022/07/05 04:34:13;;;;;;;7.00;4.63;;;15.80;68.70;;;;;;5115118;28;20046;-75
2022/07/05 04:36:40;;;;;;;6.45;4.25;;;15.90;69.00;;;;;;5115212;28;20029;-75
2022/07/05 04:39:07;;;;;;;9.57;4.60;;;15.90;69.60;;;;;;5115123;28;20035;-75
2022/07/05 04:41:33;;;;;;;7.10;4.60;;;16.00;70.20;;;;;;5114675;28;20021;-75
2022/07/05 04:43:59;;;;;;;6.97;4.78;;;16.00;70.00;;;;;;5115102;28;20026;-75
2022/07/05 04:46:24;;;;;;;7.78;5.13;;;16.20;70.40;;;;;;5114978;28;20032;-75
2022/07/05 04:48:50;;;;;;;7.07;5.05;;;16.20;70.50;;;;;;5114991;28;20024;-76
2022/07/05 04:51:16;;;;;;;7.82;4.72;;;16.30;70.00;;;;;;5097087;28;20035;-75
2022/07/05 04:53:42;;;;;;;6.93;4.82;;;16.40;70.20;;;;;;5114615;28;20100;-74
2022/07/05 04:56:08;;;;;;;6.85;4.82;;;16.40;70.20;;;;;;5114831;28;20072;-75
2022/07/05 04:58:34;;;;;;;11.23;4.82;;;16.50;70.20;;;;;;5114786;28;20032;-75
2022/07/05 05:01:00;;;;;;;6.30;4.85;;;16.60;70.10;;;;;;5114692;28;20051;-75
2022/07/05 05:03:25;;;;;;;8.70;5.57;;;16.70;70.50;;;;;;5114656;28;20013;-75
2022/07/05 05:05:51;;;;;;;8.88;5.90;;;16.60;70.50;;;;;;5096714;28;20025;-74
2022/07/05 05:08:17;;;;;;;8.30;5.95;;;16.70;70.60;;;;;;5096748;28;20078;-75
2022/07/05 05:10:42;;;;;;;8.75;6.55;;;16.70;70.50;;;;;;5096805;28;20028;-75
2022/07/05 05:13:08;;;;;;;8.55;6.03;;;16.80;70.40;;;;;;5114452;28;20042;-75
2022/07/05 05:15:34;;;;;;;8.82;6.03;;;16.90;70.60;;;;;;5114605;28;20104;-75
2022/07/05 05:18:00;;;;;;;8.93;5.78;;;16.90;70.40;;;;;;5114567;28;20027;-76
2022/07/05 05:20:26;;;;;;;10.80;6.60;;;16.90;70.30;;;;;;5114473;28;20024;-75
2022/07/05 05:22:51;;;;;;;10.50;6.40;;;16.80;70.90;;;;;;5114318;28;20028;-75
2022/07/05 05:25:17;;;;;;;9.38;6.78;;;16.80;71.10;;;;;;5114283;28;20028;-75
2022/07/05 05:27:50;;;;;;;10.20;6.63;;;16.90;71.50;;;;;;5114162;28;20031;-75
2022/07/05 05:30:18;;;;;;;10.93;6.95;;;16.90;71.50;;;;;;5114348;28;20030;-75
2022/07/05 05:32:44;;;;;;;11.48;7.35;;;16.90;72.00;;;;;;5114286;28;20024;-75
2022/07/05 05:35:09;;;;;;;10.38;7.13;;;17.00;71.90;;;;;;5114009;28;20032;-75
2022/07/05 05:37:54;;;;;;;10.70;6.78;;;17.00;72.30;;;;;;5114024;28;20054;-74
2022/07/05 05:40:24;;;;;;;9.23;6.32;;;17.10;72.80;;;;;;5114068;28;20023;-75
2022/07/05 05:42:51;;;;;;;10.68;7.03;;;17.10;73.50;;;;;;5114190;28;20032;-74
2022/07/05 05:45:18;;;;;;;11.07;6.93;;;17.10;73.10;;;;;;5113930;28;20028;-75
2022/07/05 05:47:51;;;;;;;13.23;7.35;;;17.10;73.90;;;;;;5113911;28;20087;-75
2022/07/05 05:50:31;;;;;;;10.85;7.00;;;17.10;74.00;;;;;;5113853;28;20054;-76
2022/07/05 05:52:57;;;;;;;10.40;7.20;;;17.20;73.80;;;;;;5112849;28;20070;-75
2022/07/05 05:55:24;;;;;;;12.07;7.63;;;17.20;73.70;;;;;;5113727;28;20032;-76
2022/07/05 05:57:50;;;;;;;12.20;7.60;;;17.20;73.80;;;;;;5113775;28;20024;-75
2022/07/05 06:00:17;;;;;;;10.63;6.32;;;17.30;73.40;;;;;;5113720;28;20437;-76
2022/07/05 06:02:43;;;;;;;10.10;7.10;;;17.40;73.00;;;;;;5113609;28;20028;-75
2022/07/05 06:05:10;;;;;;;11.95;7.13;;;17.50;72.60;;;;;;5113695;28;20023;-75
2022/07/05 06:07:52;;;;;;;11.45;6.90;;;17.50;72.20;;;;;;5095897;28;20118;-75
2022/07/05 06:10:21;;;;;;;11.65;7.22;;;17.50;72.70;;;;;;5113600;28;20028;-74
2022/07/05 06:12:47;;;;;;;12.98;7.05;;;17.50;72.40;;;;;;5113563;28;20037;-75
2022/07/05 06:15:13;;;;;;;11.45;7.70;;;17.50;72.40;;;;;;5113489;28;20031;-76
2022/07/05 06:17:39;;;;;;;11.55;7.57;;;17.60;72.30;;;;;;5113524;28;20016;-74
2022/07/05 06:20:09;;;;;;;12.13;7.60;;;17.60;72.20;;;;;;5113627;28;20024;-74
2022/07/05 06:22:35;;;;;;;13.68;7.85;;;17.70;72.50;;;;;;5113410;28;20048;-75
2022/07/05 06:25:01;;;;;;;12.80;7.35;;;17.70;72.10;;;;;;5095657;28;20028;-75
2022/07/05 06:27:27;;;;;;;11.27;7.13;;;17.80;72.30;;;;;;5113425;28;20032;-75
2022/07/05 06:29:52;;;;;;;12.90;7.05;;;17.80;71.80;;;;;;5113324;28;20386;-75
2022/07/05 06:32:18;;;;;;;10.07;6.68;;;17.80;71.50;;;;;;5113396;28;20025;-75
2022/07/05 06:34:43;;;;;;;10.93;7.47;;;17.90;71.50;;;;;;5113359;28;20032;-75
2022/07/05 06:37:09;;;;;;;11.05;7.53;;;17.90;71.30;;;;;;5113293;28;20024;-75
2022/07/05 06:39:35;;;;;;;8.77;6.15;;;17.90;71.20;;;;;;5113448;28;20051;-75
2022/07/05 06:42:00;;;;;;;11.98;7.75;;;18.00;71.10;;;;;;5113263;28;20021;-75
2022/07/05 06:44:26;;;;;;;13.68;8.23;;;18.10;71.30;;;;;;5113236;28;20027;-75
2022/07/05 06:46:53;;;;;;;10.73;7.45;;;18.10;71.50;;;;;;5113269;28;20042;-75
2022/07/05 06:49:18;;;;;;;9.50;7.15;;;18.20;71.20;;;;;;5113380;28;20054;-75
2022/07/05 06:51:44;;;;;;;13.70;7.85;;;18.20;71.20;;;;;;5113188;28;20032;-75
2022/07/05 06:54:09;;;;;;;11.05;7.05;;;18.20;72.40;;;;;;5095159;28;20059;-75
2022/07/05 06:56:35;;;;;;;9.43;6.38;;;18.30;71.60;;;;;;5113134;28;20036;-75
2022/07/05 06:59:00;;;;;;;10.05;7.03;;;18.30;71.50;;;;;;5113141;28;20032;-75
2022/07/05 07:01:26;;;;;;;11.40;7.10;;;18.30;70.80;;;;;;5113125;28;20032;-75
2022/07/05 07:03:52;;;;;;;13.20;7.57;;;18.40;70.90;;;;;;5114431;28;20028;-75
2022/07/05 07:06:18;;;;;;;11.73;7.30;;;18.40;71.00;;;;;;5117009;28;20046;-75
2022/07/05 07:11:29;;;;;;;10.82;7.43;;;18.50;70.80;;;;;;5117128;28;20039;-76
2022/07/05 07:13:55;;;;;;;11.05;7.75;;;18.60;69.80;;;;;;5116793;28;20548;-75
2022/07/05 07:16:20;;;;;;;10.10;6.80;;;18.60;69.90;;;;;;5116812;28;20028;-75
2022/07/05 07:18:46;;;;;;;10.00;6.22;;;18.70;69.80;;;;;;5116742;28;20028;-74
2022/07/05 07:21:12;;;;;;;9.65;6.30;;;18.70;68.60;;;;;;5116714;28;20028;-75
2022/07/05 07:23:37;;;;;;;9.35;6.30;;;18.70;67.90;;;;;;5116836;28;20020;-74
2022/07/05 07:26:03;;;;;;;9.18;6.38;;;18.80;67.90;;;;;;5116739;28;20498;-75
2022/07/05 07:28:29;;;;;;;9.15;6.57;;;18.90;68.50;;;;;;5116529;28;20028;-76
2022/07/05 07:30:55;;;;;;;9.00;6.32;;;18.90;68.10;;;;;;5116522;28;20028;-75
2022/07/05 07:33:21;;;;;;;8.88;6.00;;;18.90;68.20;;;;;;5116435;28;20027;-75
2022/07/05 07:35:47;;;;;;;7.97;5.28;;;19.00;69.20;;;;;;5116390;28;20145;-75
2022/07/05 07:38:12;;;;;;;10.02;5.93;;;19.10;69.00;;;;;;5116421;28;20017;-74
2022/07/05 07:40:38;;;;;;;6.75;4.80;;;19.10;67.40;;;;;;5116317;28;20028;-75
2022/07/05 07:43:03;;;;;;;6.40;4.20;;;19.20;67.30;;;;;;5116337;28;20046;-74
2022/07/05 07:45:30;;;;;;;4.00;3.03;;;19.40;67.20;;;;;;5116207;28;20059;-75
2022/07/05 07:47:56;;;;;;;6.65;4.13;;;19.50;65.00;;;;;;5116373;28;20032;-74
2022/07/05 07:50:22;;;;;;;5.38;3.80;;;19.40;65.20;;;;;;5116211;28;20034;-74
2022/07/05 07:52:48;;;;;;;6.10;4.03;;;19.40;65.40;;;;;;5098009;28;20031;-75
2022/07/05 07:55:15;;;;;;;7.35;3.92;;;19.50;65.80;;;;;;5098377;28;20051;-75
2022/07/05 07:57:41;;;;;;;5.70;3.65;;;19.40;65.00;;;;;;5116012;28;20016;-75
2022/07/05 08:00:07;;;;;;;6.57;4.50;;;19.50;64.70;;;;;;5115958;28;20027;-75
2022/07/05 08:02:33;;;;;;;5.18;3.83;;;19.50;65.80;;;;;;5115831;28;20050;-75
2022/07/05 08:04:58;;;;;;;5.10;3.47;;;19.50;65.10;;;;;;5115903;28;20028;-75
2022/07/05 08:07:24;;;;;;;5.55;3.30;;;19.60;65.40;;;;;;5115836;28;20032;-75
2022/07/05 08:09:51;;;;;;;5.47;3.45;;;19.70;65.00;;;;;;5115819;28;20029;-75
2022/07/05 08:12:16;;;;;;;4.95;3.40;;;19.70;65.40;;;;;;5115720;28;20050;-75
2022/07/05 08:14:42;;;;;;;4.88;3.58;;;19.80;65.00;;;;;;5115289;28;20032;-75
2022/07/05 08:17:08;;;;;;;5.50;3.80;;;19.90;65.80;;;;;;5115226;28;20024;-75
2022/07/05 08:22:19;;;;;;;5.80;3.33;;;20.00;65.60;;;;;;5115685;28;20027;-74
2022/07/05 08:24:45;;;;;;;4.75;3.53;;;20.00;65.50;;;;;;5115514;28;20028;-75
2022/07/05 08:27:11;;;;;;;6.05;3.63;;;20.00;64.60;;;;;;5115487;28;20034;-74
2022/07/05 08:29:38;;;;;;;6.35;3.97;;;20.10;66.30;;;;;;5115342;28;20048;-74
2022/07/05 08:32:04;;;;;;;7.25;4.20;;;20.10;64.80;;;;;;5115382;28;20079;-74
2022/07/05 08:34:30;;;;;;;5.45;3.92;;;20.00;65.50;;;;;;5115239;28;20032;-75
2022/07/05 08:36:55;;;;;;;6.45;4.15;;;20.00;65.10;;;;;;5115278;28;20035;-75
2022/07/05 08:39:21;;;;;;;6.57;4.10;;;20.00;65.10;;;;;;5115238;28;20025;-75
2022/07/05 08:41:52;;;;;;;4.97;3.50;;;20.10;65.60;;;;;;5115156;28;20046;-74
2022/07/05 08:44:20;;;;;;;7.45;4.22;;;20.20;65.00;;;;;;5115138;28;20031;-75
2022/07/05 08:46:47;;;;;;;7.63;4.10;;;20.20;65.70;;;;;;5115215;28;20047;-74
2022/07/05 08:49:14;;;;;;;5.57;3.90;;;20.30;66.60;;;;;;5115033;28;20024;-75
2022/07/05 08:51:42;;;;;;;5.55;3.55;;;20.30;65.20;;;;;;5115010;28;20028;-75
2022/07/05 08:54:12;;;;;;;7.10;3.92;;;20.30;64.80;;;;;;5114626;28;20098;-75
2022/07/05 08:56:40;;;;;;;7.45;3.88;;;20.50;65.70;;;;;;5114796;28;20028;-74
2022/07/05 08:59:05;;;;;;;5.57;4.05;;;20.60;64.50;;;;;;5097389;28;20021;-75
2022/07/05 09:01:34;;;;;;;4.75;3.13;;;20.70;64.50;;;;;;5114808;28;20429;-75
2022/07/05 09:04:03;;;;;;;6.88;3.30;;;20.70;63.00;;;;;;5114733;28;20046;-74
2022/07/05 09:06:32;;;;;;;6.28;3.70;;;20.70;63.20;;;;;;5096692;28;20024;-74
2022/07/05 09:08:59;;;;;;;5.15;3.45;;;20.70;63.30;;;;;;5114623;28;20027;-74
2022/07/05 09:11:37;;;;;;;5.57;3.97;;;20.80;63.90;;;;;;5096742;28;20028;-74
2022/07/05 09:14:18;;;;;;;5.50;3.65;;;20.90;65.30;;;;;;5114666;28;20417;-74
2022/07/05 09:16:44;;;;;;;6.07;4.03;;;20.90;63.00;;;;;;5114559;28;20445;-74
2022/07/05 09:19:10;;;;;;;6.70;3.72;;;20.90;63.50;;;;;;5114644;28;20044;-74
2022/07/05 09:21:36;;;;;;;5.78;3.80;;;20.90;63.30;;;;;;5114362;28;20024;-75
2022/07/05 09:24:07;;;;;;;6.90;3.88;;;21.00;62.70;;;;;;5114485;28;20055;-74
2022/07/05 09:26:38;;;;;;;5.88;3.65;;;21.00;63.80;;;;;;5114294;28;20065;-74
2022/07/05 09:29:06;;;;;;;4.55;3.20;;;20.90;61.50;;;;;;5114235;28;20024;-74
2022/07/05 09:31:44;;;;;;;4.65;3.05;;;20.80;61.70;;;;;;5114250;28;20031;-74
2022/07/05 09:34:20;;;;;;;4.05;2.63;;;20.80;60.90;;;;;;5114126;28;20100;-74
2022/07/05 09:36:53;;;;;;;3.70;2.10;;;20.80;60.10;;;;;;5114304;28;20031;-75
2022/07/05 09:39:36;;;;;;;3.13;1.90;;;20.80;56.10;;;;;;5114165;28;20012;-75
2022/07/05 09:42:23;;;;;;;2.85;1.70;;;20.80;55.10;;;;;;5114061;28;20049;-74
2022/07/05 09:44:56;;;;;;;2.40;1.52;;;20.90;55.40;;;;;;5113988;28;20028;-75
2022/07/05 09:47:29;;;;;;;2.47;2.00;;;20.80;53.30;;;;;;5114089;28;20079;-74
2022/07/05 09:50:03;;;;;;;3.33;1.75;;;20.80;55.00;;;;;;5113980;28;20020;-75
2022/07/05 09:52:37;;;;;;;2.45;1.70;;;20.90;55.40;;;;;;5113935;28;20080;-75
2022/07/05 09:55:18;;;;;;;3.78;2.00;;;21.10;56.60;;;;;;5095743;28;20048;-74
2022/07/05 09:57:47;;;;;;;2.47;1.70;;;21.10;56.70;;;;;;5113873;28;20016;-74
2022/07/05 10:00:16;;;;;;;2.33;1.88;;;21.30;55.60;;;;;;5114042;28;20036;-75
2022/07/05 10:02:53;;;;;;;2.10;1.73;;;21.50;54.70;;;;;;5113671;28;20024;-74
2022/07/05 10:05:20;;;;;;;3.60;2.13;;;21.60;54.40;;;;;;5113856;28;20031;-75
2022/07/05 10:07:48;;;;;;;2.40;1.88;;;21.80;54.00;;;;;;5113780;28;20083;-75
2022/07/05 10:10:15;;;;;;;3.35;1.95;;;21.80;53.60;;;;;;5113610;28;20080;-75
2022/07/05 10:12:43;;;;;;;2.60;1.85;;;21.80;53.50;;;;;;5113644;28;20028;-75
2022/07/05 10:15:11;;;;;;;4.18;2.20;;;21.80;53.70;;;;;;5113523;28;20032;-74
2022/07/05 10:17:42;;;;;;;3.10;2.20;;;21.70;53.50;;;;;;5113566;28;20024;-74
2022/07/05 10:20:29;;;;;;;2.53;2.10;;;21.70;53.70;;;;;;5113481;28;20027;-74
2022/07/05 10:22:56;;;;;;;5.35;2.13;;;21.60;54.20;;;;;;5113568;28;20080;-75
2022/07/05 10:25:23;;;;;;;3.72;2.45;;;21.60;53.00;;;;;;5113504;28;20051;-74
2022/07/05 10:27:53;;;;;;;3.15;1.75;;;21.50;52.90;;;;;;5113373;28;20020;-74
2022/07/05 10:30:20;;;;;;;2.80;1.67;;;21.50;53.80;;;;;;5113605;28;20056;-75
2022/07/05 10:32:47;;;;;;;2.25;1.67;;;21.60;53.50;;;;;;5113441;28;20036;-75
2022/07/05 10:35:12;;;;;;;3.90;1.80;;;21.60;52.90;;;;;;5113343;28;20035;-75
2022/07/05 10:37:38;;;;;;;3.45;1.83;;;21.60;52.90;;;;;;5113394;28;20012;-75
2022/07/05 10:40:06;;;;;;;2.70;2.08;;;21.60;53.40;;;;;;5116842;28;20583;-75
2022/07/05 10:42:42;;;;;;;2.72;2.33;;;21.70;54.00;;;;;;5117469;28;20031;-75
2022/07/05 10:45:28;;;;;;;3.17;2.05;;;21.80;52.70;;;;;;5117559;28;20024;-75
2022/07/05 10:48:22;;;;;;;2.58;2.10;;;21.90;51.60;;;;;;5117417;28;20054;-75
2022/07/05 10:50:55;;;;;;;2.00;1.80;;;22.10;53.20;;;;;;5117524;28;20028;-75
2022/07/05 10:53:26;;;;;;;3.45;2.38;;;22.40;53.70;;;;;;5117034;28;20058;-75
2022/07/05 10:55:56;;;;;;;3.10;2.08;;;22.40;52.40;;;;;;5117281;28;20027;-75
2022/07/05 10:58:30;;;;;;;2.33;1.85;;;22.30;50.50;;;;;;5117209;28;20039;-74
2022/07/05 11:01:20;;;;;;;2.33;1.63;;;22.20;51.20;;;;;;5117192;28;20092;-75
2022/07/05 11:03:52;;;;;;;1.98;1.70;;;22.20;51.30;;;;;;5099095;28;20035;-75
2022/07/05 11:06:44;;;;;;;2.40;1.75;;;22.20;51.20;;;;;;5117115;28;20028;-75
2022/07/05 11:09:09;;;;;;;2.20;1.70;;;22.20;50.30;;;;;;5116947;28;20070;-75
2022/07/05 11:11:37;;;;;;;3.40;1.90;;;22.20;50.40;;;;;;5116968;28;20024;-75
2022/07/05 11:14:23;;;;;;;2.85;2.17;;;22.00;51.30;;;;;;5116835;28;20034;-75
2022/07/05 11:17:11;;;;;;;4.28;2.13;;;22.10;51.70;;;;;;5116317;28;20084;-75
2022/07/05 11:19:59;;;;;;;3.30;2.05;;;22.10;52.30;;;;;;5116837;28;20036;-74
2022/07/05 11:22:25;;;;;;;2.75;2.05;;;22.20;52.50;;;;;;5116702;28;20020;-75
2022/07/05 11:24:51;;;;;;;2.85;2.15;;;22.20;52.00;;;;;;5098877;28;20032;-75
2022/07/05 11:27:17;;;;;;;4.13;1.98;;;22.20;52.40;;;;;;5116630;28;20054;-74
2022/07/05 11:29:44;;;;;;;2.30;1.88;;;22.20;52.40;;;;;;5116546;28;20024;-74
2022/07/05 11:32:14;;;;;;;4.65;2.10;;;22.20;52.50;;;;;;5116559;28;20035;-74
2022/07/05 11:34:42;;;;;;;3.08;1.85;;;22.10;52.20;;;;;;5116451;28;20020;-74
2022/07/05 11:37:14;;;;;;;2.50;1.73;;;22.00;53.00;;;;;;5116422;28;20020;-74
2022/07/05 11:39:44;;;;;;;2.28;1.75;;;22.00;52.60;;;;;;5116396;28;20024;-74
2022/07/05 11:42:11;;;;;;;2.03;1.50;;;21.90;52.60;;;;;;5116356;28;20025;-74
2022/07/05 11:44:40;;;;;;;2.60;1.38;;;21.80;52.10;;;;;;5098269;28;20038;-74
2022/07/05 11:47:06;;;;;;;2.20;1.98;;;21.80;52.20;;;;;;5116314;28;20024;-74
2022/07/05 11:49:32;;;;;;;2.05;1.30;;;21.80;52.80;;;;;;5115754;28;20486;-74
2022/07/05 11:52:02;;;;;;;2.08;1.40;;;21.80;52.20;;;;;;5115437;28;20027;-74
2022/07/05 11:54:30;;;;;;;2.20;1.58;;;21.80;52.30;;;;;;5115870;28;20059;-74
2022/07/05 11:56:56;;;;;;;3.88;1.50;;;21.80;51.00;;;;;;5116095;28;20016;-74
2022/07/05 11:59:23;;;;;;;2.80;1.60;;;21.80;51.30;;;;;;5116022;28;20028;-75
2022/07/05 12:01:49;;;;;;;2.50;1.65;;;21.90;51.30;;;;;;5115953;28;20054;-75
2022/07/05 12:04:26;;;;;;;2.80;1.80;;;21.90;51.10;;;;;;5116086;28;20046;-75
2022/07/05 12:06:55;;;;;;;2.17;1.75;;;22.00;51.70;;;;;;5115886;28;20032;-75
2022/07/05 12:12:42;;;;;;;2.07;1.70;;;22.00;51.50;;;;;;5115965;28;20074;-75
2022/07/05 12:15:13;;;;;;;3.45;2.38;;;22.00;52.00;;;;;;5115798;28;20024;-75
2022/07/05 12:17:40;;;;;;;3.05;2.20;;;22.00;52.20;;;;;;5097873;28;20044;-74
2022/07/05 12:20:08;;;;;;;3.30;2.45;;;22.20;52.80;;;;;;5115598;28;20024;-74
2022/07/05 12:22:44;;;;;;;3.25;2.50;;;22.30;55.40;;;;;;5115574;28;20031;-73
2022/07/05 12:25:16;;;;;;;2.88;2.58;;;22.40;55.50;;;;;;5115538;28;20028;-73
2022/07/05 12:27:43;;;;;;;4.22;3.00;;;22.40;54.40;;;;;;5115527;28;20080;-74
2022/07/05 12:30:10;;;;;;;3.92;2.97;;;22.70;53.90;;;;;;5115453;28;20050;-75
2022/07/05 12:33:05;;;;;;;2.47;2.00;;;22.80;51.80;;;;;;5115355;28;20059;-74
2022/07/05 12:35:36;;;;;;;2.55;2.00;;;23.00;51.40;;;;;;5106239;28;20040;-74
2022/07/05 12:38:04;;;;;;;2.47;2.10;;;23.10;50.50;;;;;;5097385;28;20032;-75
2022/07/05 12:40:30;;;;;;;3.08;1.90;;;23.10;50.50;;;;;;5115217;28;20024;-74
2022/07/05 12:43:10;;;;;;;2.25;1.80;;;23.00;50.30;;;;;;5115164;28;20119;-75
2022/07/05 12:45:41;;;;;;;2.95;1.70;;;23.00;50.40;;;;;;5115168;28;20430;-75
2022/07/05 12:48:09;;;;;;;1.98;1.42;;;22.80;49.00;;;;;;5115110;28;20028;-74
2022/07/05 12:50:49;;;;;;;3.22;1.95;;;22.70;49.60;;;;;;5115043;28;20028;-74
2022/07/05 12:58:55;;;;;;;3.08;2.20;;;22.70;49.80;;;;;;5115154;28;20038;-74
2022/07/05 13:01:34;;;;;;;2.47;2.10;;;22.90;50.80;;;;;;5114480;28;20030;-75
2022/07/05 13:04:10;;;;;;;2.90;1.85;;;23.20;49.50;;;;;;5114819;28;20045;-74